createdAt,value
2017-03-11T00:00:06.430Z,54.1
2017-03-11T00:10:06.358Z,54.1
2017-03-11T00:20:06.358Z,54.1
2017-03-11T00:30:06.359Z,54.1
2017-03-11T00:40:06.393Z,54.1
2017-03-11T00:50:06.357Z,53.5
2017-03-11T01:00:06.397Z,54.1
2017-03-11T01:10:06.365Z,54.1
2017-03-11T01:20:06.356Z,53.5
2017-03-11T01:30:06.368Z,53
2017-03-11T01:40:06.361Z,53.5
2017-03-11T01:50:06.400Z,53.5
2017-03-11T02:00:06.366Z,53.5
2017-03-11T02:10:06.358Z,53.5
2017-03-11T02:20:06.354Z,53
2017-03-11T02:30:06.358Z,54.1
2017-03-11T02:40:06.355Z,53.5
2017-03-11T02:50:06.384Z,53.5
2017-03-11T03:00:06.358Z,53
2017-03-11T03:10:06.368Z,53.5
2017-03-11T03:20:06.358Z,53
2017-03-11T03:30:06.361Z,53
2017-03-11T03:40:06.363Z,53
2017-03-11T03:50:06.357Z,53
2017-03-11T04:00:06.363Z,53.5
2017-03-11T04:10:06.357Z,53
2017-03-11T04:20:06.357Z,53
2017-03-11T04:30:06.389Z,53
2017-03-11T04:40:06.357Z,53
2017-03-11T04:50:06.357Z,53
2017-03-11T05:00:06.333Z,53
2017-03-11T05:10:06.362Z,53
2017-03-11T05:20:06.363Z,53
2017-03-11T05:30:06.387Z,53
2017-03-11T05:40:06.359Z,53
2017-03-11T05:50:06.426Z,53
2017-03-11T06:00:06.356Z,53
2017-03-11T06:10:06.363Z,53
2017-03-11T06:20:06.358Z,53
2017-03-11T06:30:06.394Z,52.5
2017-03-11T06:40:06.358Z,52.5
2017-03-11T06:50:06.383Z,52.5
2017-03-11T07:00:06.356Z,52.5
2017-03-11T07:10:06.357Z,52.5
2017-03-11T07:20:03.374Z,53
2017-03-11T07:30:06.356Z,53
2017-03-11T07:40:06.362Z,53
2017-03-11T07:50:06.355Z,52.5
2017-03-11T08:00:06.364Z,53
2017-03-11T08:10:06.381Z,53
2017-03-11T08:20:06.358Z,53
2017-03-11T08:30:06.355Z,53
2017-03-11T08:40:06.357Z,53
2017-03-11T08:50:06.388Z,53
2017-03-11T09:00:04.812Z,53
2017-03-11T09:10:06.383Z,53
2017-03-11T09:20:06.355Z,53.5
2017-03-11T09:30:06.368Z,53.5
2017-03-11T09:40:06.355Z,54.1
2017-03-11T09:50:06.394Z,54.1
2017-03-11T10:00:06.356Z,53.5
2017-03-11T10:10:06.373Z,54.1
2017-03-11T10:20:02.357Z,54.1
2017-03-11T10:30:06.398Z,54.6
2017-03-11T10:40:02.051Z,54.1
2017-03-11T10:50:06.356Z,54.1
2017-03-11T11:00:06.365Z,55.1
2017-03-11T11:10:06.360Z,55.1
2017-03-11T11:20:06.357Z,55.1
2017-03-11T11:30:02.268Z,55.7
2017-03-11T11:40:06.357Z,55.7
2017-03-11T11:50:06.430Z,55.7
2017-03-11T12:00:06.361Z,56.2
2017-03-11T12:10:06.366Z,56.2
2017-03-11T12:20:06.379Z,56.2
2017-03-11T12:30:06.440Z,56.2
2017-03-11T12:40:06.389Z,56.8
2017-03-11T12:50:06.359Z,56.2
2017-03-11T13:00:06.357Z,56.2
2017-03-11T13:10:06.359Z,56.2
2017-03-11T13:20:06.356Z,56.8
2017-03-11T13:30:06.358Z,56.2
2017-03-11T13:40:06.390Z,56.2
2017-03-11T13:50:06.358Z,56.2
2017-03-11T14:00:06.358Z,56.2
2017-03-11T14:10:06.392Z,56.8
2017-03-11T14:20:06.409Z,56.8
2017-03-11T14:30:06.388Z,56.2
2017-03-11T14:40:06.356Z,56.2
2017-03-11T14:50:06.388Z,56.8
2017-03-11T15:00:06.356Z,56.2
2017-03-11T15:10:06.359Z,56.8
2017-03-11T15:20:05.626Z,56.2
2017-03-11T15:30:06.840Z,56.8
2017-03-11T15:40:01.118Z,56.2
2017-03-11T15:50:19.346Z,56.8
2017-03-11T16:00:16.359Z,57.3
2017-03-11T16:10:01.689Z,56.8
2017-03-11T16:20:06.365Z,56.8
2017-03-11T16:30:06.358Z,56.8
2017-03-11T16:40:06.359Z,56.8
2017-03-11T16:50:06.360Z,56.8
2017-03-11T17:00:01.614Z,57.3
2017-03-11T17:10:06.361Z,56.2
2017-03-11T17:20:06.357Z,57.3
2017-03-11T17:30:06.393Z,57.3
2017-03-11T17:40:06.424Z,56.2
2017-03-11T17:50:06.365Z,56.2
2017-03-11T18:00:06.399Z,56.2
2017-03-11T18:10:05.584Z,56.2
2017-03-11T18:20:06.361Z,55.7
2017-03-11T18:30:06.394Z,56.2
2017-03-11T18:40:02.152Z,56.2
2017-03-11T18:50:06.361Z,55.1
2017-03-11T19:00:06.392Z,55.7
2017-03-11T19:10:06.361Z,55.7
2017-03-11T19:20:06.395Z,55.7
2017-03-11T19:30:06.360Z,55.1
2017-03-11T19:40:06.360Z,55.1
2017-03-11T19:50:06.373Z,55.1
2017-03-11T20:00:06.358Z,55.7
2017-03-11T20:10:06.361Z,55.1
2017-03-11T20:20:04.620Z,55.1
2017-03-11T20:30:06.360Z,55.1
2017-03-11T20:40:03.652Z,55.1
2017-03-11T20:50:06.363Z,55.1
2017-03-11T21:00:06.364Z,55.1
2017-03-11T21:10:04.117Z,54.6
2017-03-11T21:20:06.359Z,55.1
2017-03-11T21:30:06.358Z,55.1
2017-03-11T21:40:06.395Z,54.6
2017-03-11T21:50:06.400Z,54.6
2017-03-11T22:00:06.361Z,55.1
2017-03-11T22:10:06.363Z,54.1
2017-03-11T22:20:06.379Z,54.1
2017-03-11T22:30:06.360Z,54.6
2017-03-11T22:40:06.397Z,54.1
2017-03-11T22:50:06.357Z,54.1
2017-03-11T23:00:06.361Z,55.1
2017-03-11T23:10:06.357Z,54.6
2017-03-11T23:20:06.391Z,54.1
2017-03-11T23:30:06.359Z,54.6
2017-03-11T23:40:06.362Z,54.1
2017-03-11T23:50:06.362Z,54.6
